Time;durP1;ratioP1;P1;durP2;ratioP2;P2;SDS_P1;SDS_P2;PMS_P1;PMS_P2;Temp;Humidity;BMP_temperature;BMP_pressure;BME280_temperature;BME280_humidity;BME280_pressure;Samples;Min_cycle;Max_cycle;Signal;HPM_P1;HPM_P2
2022/08/31 00:05:09;;;;;;;7.40;5.07;;;;;;;16.44;100.00;96086.84;4989948;28;24424;-72
2022/08/31 00:07:36;;;;;;;8.20;5.22;;;;;;;16.40;100.00;96095.91;4989933;28;24432;-72
2022/08/31 00:10:12;;;;;;;15.68;6.00;;;;;;;16.40;100.00;96095.91;4987220;28;24545;-72
2022/08/31 00:12:39;;;;;;;9.07;5.93;;;;;;;16.30;100.00;96100.19;4989914;28;24815;-72
2022/08/31 00:15:07;;;;;;;10.80;6.32;;;;;;;16.31;100.00;96107.91;4990054;28;24835;-71
2022/08/31 00:17:33;;;;;;;13.98;6.57;;;;;;;16.29;100.00;96114.22;4987205;28;24436;-72
2022/08/31 00:20:00;;;;;;;9.37;5.70;;;;;;;16.56;100.00;96122.44;4984471;28;24440;-72
2022/08/31 00:22:27;;;;;;;9.52;5.80;;;;;;;16.65;100.00;96126.94;4987516;28;24452;-72
2022/08/31 00:24:54;;;;;;;8.70;5.68;;;;;;;16.72;100.00;96129.03;4989986;28;24447;-72
2022/08/31 00:27:20;;;;;;;11.88;5.90;;;;;;;16.60;100.00;96123.84;4987410;28;24448;-72
2022/08/31 00:29:47;;;;;;;9.20;6.15;;;;;;;16.26;100.00;96122.31;4986411;28;24885;-71
2022/08/31 00:32:13;;;;;;;9.63;6.18;;;;;;;15.91;100.00;96112.88;4983474;28;24472;-71
2022/08/31 00:34:40;;;;;;;10.45;6.40;;;;;;;15.83;100.00;96108.22;4981614;28;24517;-71
2022/08/31 00:37:06;;;;;;;10.43;6.07;;;;;;;15.77;100.00;96110.50;4989228;28;24433;-72
2022/08/31 00:39:34;;;;;;;7.30;5.85;;;;;;;15.76;100.00;96108.81;4985085;28;24429;-71
2022/08/31 00:42:01;;;;;;;7.40;5.95;;;;;;;15.65;100.00;96100.06;4987597;28;24440;-71
2022/08/31 00:44:27;;;;;;;11.13;6.35;;;;;;;15.67;100.00;96102.56;4989799;28;24433;-72
2022/08/31 00:46:54;;;;;;;10.40;6.28;;;;;;;15.81;100.00;96102.31;4989963;28;24440;-71
2022/08/31 00:49:24;;;;;;;6.20;5.27;;;;;;;15.93;100.00;96113.56;4986049;28;24499;-72
2022/08/31 00:51:54;;;;;;;7.95;5.80;;;;;;;16.18;100.00;96110.69;4987745;28;25025;-72
2022/08/31 00:54:26;;;;;;;9.93;5.55;;;;;;;16.03;100.00;96106.69;4977453;28;24437;-72
2022/08/31 00:56:54;;;;;;;8.23;5.78;;;;;;;15.88;100.00;96100.06;4988294;28;24429;-72
2022/08/31 00:59:22;;;;;;;8.52;5.63;;;;;;;15.82;100.00;96085.69;4984978;28;24440;-72
2022/08/31 01:01:48;;;;;;;6.75;5.25;;;;;;;15.79;100.00;96090.31;4988887;28;24455;-72
2022/08/31 01:04:16;;;;;;;8.75;5.95;;;;;;;15.73;100.00;96089.84;4981913;28;24426;-72
2022/08/31 01:06:43;;;;;;;11.00;6.07;;;;;;;15.66;100.00;96085.22;4992304;28;24432;-72
2022/08/31 01:09:11;;;;;;;8.65;6.20;;;;;;;15.63;100.00;96067.97;4984510;28;25318;-72
2022/08/31 01:11:39;;;;;;;7.32;5.50;;;;;;;15.65;100.00;96067.88;4991962;28;24464;-72
2022/08/31 01:14:08;;;;;;;7.60;6.57;;;;;;;15.64;100.00;96067.03;4990346;28;24441;-71
2022/08/31 01:16:38;;;;;;;8.25;5.88;;;;;;;15.68;100.00;96063.28;4992305;28;24994;-72
2022/08/31 01:19:10;;;;;;;10.07;6.23;;;;;;;15.71;100.00;96062.19;4989818;28;24492;-71
2022/08/31 01:21:43;;;;;;;6.35;5.45;;;;;;;15.64;100.00;96064.41;4989268;28;24440;-72
2022/08/31 01:24:12;;;;;;;9.93;5.35;;;;;;;15.70;100.00;96069.19;4992777;28;24433;-72
2022/08/31 01:26:39;;;;;;;7.22;5.78;;;;;;;15.90;100.00;96069.41;4992320;28;24433;-72
2022/08/31 01:29:06;;;;;;;5.63;5.03;;;;;;;16.05;100.00;96067.34;4984852;28;24998;-72
2022/08/31 01:31:38;;;;;;;8.43;4.95;;;;;;;16.19;100.00;96083.59;4992079;28;25004;-72
2022/08/31 01:34:05;;;;;;;7.80;5.70;;;;;;;16.24;100.00;96078.00;4986435;28;25058;-72
2022/08/31 01:36:33;;;;;;;9.05;6.07;;;;;;;16.40;100.00;96098.50;4992471;28;24800;-72
2022/08/31 01:38:59;;;;;;;6.95;5.03;;;;;;;16.51;100.00;96097.66;4986011;28;24464;-72
2022/08/31 01:41:27;;;;;;;7.30;5.10;;;;;;;16.50;100.00;96104.66;4992258;28;24429;-72
2022/08/31 01:43:55;;;;;;;9.32;5.25;;;;;;;16.48;100.00;96108.34;4985812;28;24559;-72
2022/08/31 01:46:22;;;;;;;6.23;4.73;;;;;;;16.45;100.00;96099.78;4991412;28;24461;-72
2022/08/31 01:48:51;;;;;;;6.30;4.70;;;;;;;16.59;100.00;96097.84;4985798;28;24436;-72
2022/08/31 01:51:20;;;;;;;6.25;4.80;;;;;;;16.63;100.00;96089.63;4983423;28;24544;-72
2022/08/31 01:53:48;;;;;;;6.00;4.57;;;;;;;16.71;100.00;96088.97;4979465;28;24443;-72
2022/08/31 01:56:18;;;;;;;6.20;4.65;;;;;;;16.85;100.00;96096.56;4992310;28;24437;-72
2022/08/31 01:58:46;;;;;;;5.00;4.32;;;;;;;16.77;100.00;96087.69;4986718;28;24449;-71
2022/08/31 02:01:12;;;;;;;10.03;4.50;;;;;;;16.62;100.00;96090.56;4990385;28;24922;-72
2022/08/31 02:03:39;;;;;;;5.38;3.78;;;;;;;16.78;100.00;96089.34;4987037;28;24437;-72
2022/08/31 02:06:10;;;;;;;5.97;4.53;;;;;;;16.91;100.00;96090.00;4990054;28;24971;-72
2022/08/31 02:08:37;;;;;;;6.50;4.10;;;;;;;16.99;100.00;96087.56;4979975;28;24441;-72
2022/08/31 02:11:04;;;;;;;7.13;4.85;;;;;;;16.98;100.00;96085.91;4991056;28;24434;-72
2022/08/31 02:13:31;;;;;;;6.18;4.50;;;;;;;16.96;100.00;96076.53;4990193;28;24440;-72
2022/08/31 02:15:59;;;;;;;7.35;4.70;;;;;;;16.64;100.00;96082.59;4988371;28;24444;-72
2022/08/31 02:18:26;;;;;;;6.75;5.10;;;;;;;16.36;100.00;96084.84;4982004;28;24807;-72
2022/08/31 02:20:52;;;;;;;7.60;4.43;;;;;;;16.60;100.00;96084.63;4988836;28;24457;-71
2022/08/31 02:23:19;;;;;;;6.10;4.10;;;;;;;16.73;100.00;96086.25;4985173;28;24443;-72
2022/08/31 02:25:46;;;;;;;6.40;4.40;;;;;;;16.77;100.00;96079.84;4990407;28;24436;-72
2022/08/31 02:28:13;;;;;;;5.55;4.43;;;;;;;16.66;100.00;96076.28;4987974;28;24437;-72
2022/08/31 02:30:40;;;;;;;8.20;4.30;;;;;;;16.64;100.00;96083.41;4990974;28;24526;-73
2022/08/31 02:33:08;;;;;;;7.13;4.93;;;;;;;16.48;100.00;96085.63;4988009;28;25062;-73
2022/08/31 02:35:34;;;;;;;5.57;4.37;;;;;;;16.30;100.00;96081.91;4991218;28;24436;-73
2022/08/31 02:38:01;;;;;;;7.78;4.75;;;;;;;16.05;100.00;96075.19;4988223;28;24444;-73
2022/08/31 02:40:28;;;;;;;7.07;4.97;;;;;;;15.99;100.00;96078.31;4985464;28;25010;-73
2022/08/31 02:42:54;;;;;;;5.57;4.50;;;;;;;16.03;100.00;96074.50;4988190;28;24437;-73
2022/08/31 02:45:21;;;;;;;5.68;4.50;;;;;;;16.13;100.00;96081.50;4985785;28;24437;-73
2022/08/31 02:47:48;;;;;;;5.38;4.07;;;;;;;16.33;100.00;96085.09;4988333;28;24444;-73
2022/08/31 02:50:16;;;;;;;5.97;4.38;;;;;;;16.50;100.00;96090.72;4986712;28;25016;-73
2022/08/31 02:52:42;;;;;;;5.68;4.30;;;;;;;16.61;100.00;96098.53;4987498;28;25009;-73
2022/08/31 02:55:09;;;;;;;8.13;4.57;;;;;;;16.50;100.00;96090.72;4990275;28;24468;-73
2022/08/31 02:57:35;;;;;;;5.00;4.45;;;;;;;16.60;100.00;96095.09;4999150;28;24437;-73
2022/08/31 03:00:02;;;;;;;7.53;4.28;;;;;;;16.70;100.00;96085.53;4990294;28;24858;-73
2022/08/31 03:02:29;;;;;;;6.78;4.40;;;;;;;16.68;100.00;96091.84;4988247;28;24425;-73
2022/08/31 03:04:55;;;;;;;5.72;4.32;;;;;;;16.76;100.00;96086.00;4990882;28;24448;-73
2022/08/31 03:07:23;;;;;;;5.87;4.30;;;;;;;16.78;100.00;96084.13;4989674;28;25135;-73
2022/08/31 03:09:50;;;;;;;8.17;4.30;;;;;;;16.72;100.00;96084.56;4990748;28;24432;-72
2022/08/31 03:12:16;;;;;;;6.88;4.45;;;;;;;16.60;100.00;96076.78;4989094;28;24452;-72
2022/08/31 03:14:43;;;;;;;5.88;4.45;;;;;;;16.47;100.00;96078.75;4990231;28;25012;-72
2022/08/31 03:17:09;;;;;;;6.00;4.13;;;;;;;16.56;100.00;96072.75;4988863;28;24437;-72
2022/08/31 03:19:36;;;;;;;5.75;3.97;;;;;;;16.66;100.00;96070.25;4990629;28;24463;-72
2022/08/31 03:22:02;;;;;;;7.72;4.53;;;;;;;16.66;100.00;96065.00;4982843;28;24441;-72
2022/08/31 03:24:30;;;;;;;5.78;4.10;;;;;;;16.69;100.00;96064.75;4990262;28;24448;-72
2022/08/31 03:26:57;;;;;;;4.50;3.90;;;;;;;16.77;100.00;96066.78;4982698;28;24433;-72
2022/08/31 03:29:23;;;;;;;5.82;4.22;;;;;;;16.80;100.00;96061.28;4989403;28;24433;-72
2022/08/31 03:31:50;;;;;;;7.80;4.47;;;;;;;16.70;100.00;96062.00;4989006;28;25043;-72
2022/08/31 03:34:16;;;;;;;5.77;3.83;;;;;;;16.72;100.00;96055.81;4989124;28;24444;-72
2022/08/31 03:36:43;;;;;;;7.47;4.53;;;;;;;16.75;100.00;96061.66;4983978;28;24513;-72
2022/08/31 03:39:09;;;;;;;4.82;4.25;;;;;;;16.72;100.00;96056.63;4987766;28;24436;-72
2022/08/31 03:41:37;;;;;;;5.75;4.00;;;;;;;16.78;100.00;96060.56;4988163;28;24473;-72
2022/08/31 03:44:04;;;;;;;5.10;4.50;;;;;;;16.61;100.00;96060.16;4980380;28;24440;-72
2022/08/31 03:46:32;;;;;;;4.82;4.25;;;;;;;16.61;100.00;96062.78;4985731;28;24432;-72
2022/08/31 03:49:00;;;;;;;7.90;4.80;;;;;;;16.65;100.00;96064.19;4979136;28;24443;-72
2022/08/31 03:51:27;;;;;;;8.25;4.22;;;;;;;16.63;100.00;96067.88;4984506;28;24444;-72
2022/08/31 03:53:53;;;;;;;5.40;4.43;;;;;;;16.64;100.00;96067.72;4981378;28;24824;-72
2022/08/31 03:56:21;;;;;;;6.05;4.18;;;;;;;16.55;100.00;96072.91;4985241;28;24441;-72
2022/08/31 03:58:49;;;;;;;6.57;4.28;;;;;;;16.57;100.00;96077.03;4998639;28;24447;-72
2022/08/31 04:01:15;;;;;;;5.18;4.32;;;;;;;16.53;100.00;96070.41;4996582;28;24470;-72
2022/08/31 04:03:42;;;;;;;4.85;3.95;;;;;;;16.52;100.00;96071.34;4989237;28;24437;-72
2022/08/31 04:06:10;;;;;;;6.22;4.43;;;;;;;16.50;100.00;96081.13;4988111;28;24441;-72
2022/08/31 04:08:37;;;;;;;5.55;4.20;;;;;;;16.49;100.00;96086.47;4989589;28;24808;-72
2022/08/31 04:11:07;;;;;;;6.82;5.15;;;;;;;16.29;100.00;96088.09;4987045;28;25195;-72
2022/08/31 04:13:34;;;;;;;5.13;4.32;;;;;;;16.31;100.00;96088.78;4987389;28;24429;-72
2022/08/31 04:16:02;;;;;;;5.15;4.53;;;;;;;16.30;100.00;96081.91;4985957;28;24444;-72
2022/08/31 04:18:29;;;;;;;9.13;4.30;;;;;;;16.32;100.00;96090.47;4989996;28;24839;-72
2022/08/31 04:20:55;;;;;;;4.70;4.18;;;;;;;16.35;100.00;96096.28;4986548;28;24472;-72
2022/08/31 04:23:23;;;;;;;6.80;4.18;;;;;;;16.36;100.00;96092.69;4984162;28;24440;-72
2022/08/31 04:25:49;;;;;;;4.50;3.83;;;;;;;16.39;100.00;96086.41;4987455;28;24551;-73
2022/08/31 04:28:16;;;;;;;7.72;4.32;;;;;;;16.28;100.00;96089.03;4984599;28;24437;-72
2022/08/31 04:30:43;;;;;;;4.53;4.05;;;;;;;16.13;100.00;96084.09;4979799;28;24440;-73
2022/08/31 04:33:11;;;;;;;4.70;3.97;;;;;;;16.20;100.00;96085.28;4981653;28;24899;-73
2022/08/31 04:35:39;;;;;;;4.65;3.88;;;;;;;16.23;100.00;96073.72;4986843;28;24433;-73
2022/08/31 04:38:06;;;;;;;5.38;3.95;;;;;;;16.30;100.00;96076.66;4979624;28;24860;-72
2022/08/31 04:40:32;;;;;;;4.10;3.60;;;;;;;16.21;100.00;96079.09;4988391;28;24456;-72
2022/08/31 04:42:59;;;;;;;5.80;4.07;;;;;;;16.24;100.00;96074.53;4988601;28;24520;-73
2022/08/31 04:45:26;;;;;;;5.57;3.58;;;;;;;16.23;100.00;96081.56;4988701;28;25037;-73
2022/08/31 04:47:53;;;;;;;4.43;3.95;;;;;;;16.16;100.00;96088.22;4987982;28;24452;-75
2022/08/31 04:50:21;;;;;;;5.20;3.92;;;;;;;16.12;100.00;96086.81;4984200;28;24448;-73
2022/08/31 04:52:49;;;;;;;8.88;4.03;;;;;;;16.15;100.00;96087.41;4990600;28;24432;-73
2022/08/31 04:55:16;;;;;;;7.88;4.28;;;;;;;16.06;100.00;96090.75;4981117;28;24449;-73
2022/08/31 04:57:43;;;;;;;4.43;3.88;;;;;;;16.01;100.00;96089.44;4988233;28;24432;-73
2022/08/31 05:00:10;;;;;;;5.53;4.00;;;;;;;15.97;100.00;96091.47;4992650;28;24461;-73
2022/08/31 05:02:37;;;;;;;6.20;3.80;;;;;;;16.05;100.00;96090.88;4990811;28;24819;-73
2022/08/31 05:05:04;;;;;;;6.65;4.10;;;;;;;16.11;100.00;96085.16;4991631;28;24440;-73
2022/08/31 05:07:32;;;;;;;8.02;4.20;;;;;;;16.11;100.00;96090.38;4990690;28;24886;-73
2022/08/31 05:09:59;;;;;;;6.85;3.88;;;;;;;15.97;100.00;96088.88;4990372;28;24444;-73
2022/08/31 05:12:26;;;;;;;3.95;3.35;;;;;;;15.94;100.00;96089.09;4988728;28;24452;-73
2022/08/31 05:14:52;;;;;;;3.85;3.25;;;;;;;15.88;100.00;96097.44;4991256;28;24826;-73
2022/08/31 05:17:19;;;;;;;5.50;4.07;;;;;;;15.85;100.00;96095.06;4987925;28;24448;-73
2022/08/31 05:19:45;;;;;;;4.30;3.43;;;;;;;15.92;100.00;96091.03;4990467;28;24432;-73
2022/08/31 05:22:11;;;;;;;7.30;3.85;;;;;;;15.98;100.00;96090.53;4985527;28;24815;-73
2022/08/31 05:24:39;;;;;;;5.57;3.50;;;;;;;15.85;100.00;96088.06;4990146;28;24524;-73
2022/08/31 05:27:06;;;;;;;7.10;4.10;;;;;;;15.64;100.00;96077.47;4987242;28;24433;-72
2022/08/31 05:29:32;;;;;;;5.93;4.15;;;;;;;15.61;100.00;96069.91;4989767;28;24443;-72
2022/08/31 05:31:59;;;;;;;5.63;3.92;;;;;;;15.57;100.00;96070.25;4983014;28;24529;-73
2022/08/31 05:34:26;;;;;;;5.90;4.03;;;;;;;15.69;100.00;96069.34;4990751;28;24779;-72
2022/08/31 05:36:55;;;;;;;5.37;3.97;;;;;;;15.69;100.00;96075.38;4985192;28;24444;-73
2022/08/31 05:39:22;;;;;;;4.28;3.60;;;;;;;15.73;100.00;96073.38;4982154;28;24440;-72
2022/08/31 05:41:50;;;;;;;5.55;3.83;;;;;;;15.76;100.00;96080.09;4984787;28;24463;-72
2022/08/31 05:44:19;;;;;;;9.02;3.70;;;;;;;15.64;100.00;96084.47;4983258;28;25021;-73
2022/08/31 05:46:45;;;;;;;4.25;3.55;;;;;;;15.35;100.00;96082.38;4987636;28;24473;-72
2022/08/31 05:49:12;;;;;;;6.30;3.90;;;;;;;15.25;100.00;96081.41;4985406;28;24437;-73
2022/08/31 05:51:39;;;;;;;4.78;3.65;;;;;;;15.63;100.00;96094.09;4992212;28;24437;-72
2022/08/31 05:54:09;;;;;;;4.65;3.95;;;;;;;15.63;100.00;96101.94;4983346;28;24456;-72
2022/08/31 05:56:36;;;;;;;4.43;3.85;;;;;;;15.66;100.00;96112.16;4989443;28;24448;-73
2022/08/31 05:59:04;;;;;;;5.22;3.72;;;;;;;15.70;100.00;96118.81;4989627;28;24433;-72
2022/08/31 06:01:32;;;;;;;9.27;3.97;;;;;;;15.73;100.00;96112.53;4984715;28;24573;-72
2022/08/31 06:04:00;;;;;;;4.07;3.40;;;;;;;15.99;100.00;96118.31;4990895;28;24425;-73
2022/08/31 06:06:27;;;;;;;6.43;3.70;;;;;;;15.80;100.00;96118.94;4981903;28;24441;-74
2022/08/31 06:08:55;;;;;;;6.50;3.80;;;;;;;16.08;100.00;96114.97;4977961;28;24456;-73
2022/08/31 06:11:23;;;;;;;3.92;3.50;;;;;;;16.07;100.00;96112.50;4991071;28;24441;-72
2022/08/31 06:13:52;;;;;;;4.70;3.70;;;;;;;15.93;100.00;96118.78;4988862;28;24455;-73
2022/08/31 06:16:21;;;;;;;4.13;3.70;;;;;;;15.79;100.00;96124.25;4989548;28;24511;-72
2022/08/31 06:18:49;;;;;;;5.35;3.72;;;;;;;15.73;100.00;96121.19;4989332;28;24436;-72
2022/08/31 06:21:17;;;;;;;7.07;3.80;;;;;;;15.78;100.00;96131.28;4983943;28;24535;-73
2022/08/31 06:23:44;;;;;;;4.20;3.30;;;;;;;15.64;100.00;96140.13;4989414;28;24459;-73
2022/08/31 06:26:14;;;;;;;5.63;3.83;;;;;;;15.53;100.00;96140.13;4986622;28;25028;-73
2022/08/31 06:28:42;;;;;;;4.28;3.60;;;;;;;15.62;100.00;96143.84;4991143;28;24492;-73
2022/08/31 06:31:14;;;;;;;7.00;3.80;;;;;;;15.42;100.00;96154.00;4990294;28;25070;-69
2022/08/31 06:33:42;;;;;;;3.93;3.20;;;;;;;15.60;100.00;96164.81;4986812;28;24544;-73
2022/08/31 06:36:11;;;;;;;5.72;4.25;;;;;;;15.37;100.00;96150.91;4990393;28;24464;-72
2022/08/31 06:38:37;;;;;;;7.77;3.60;;;;;;;15.43;100.00;96149.63;4988979;28;24548;-72
2022/08/31 06:41:11;;;;;;;6.50;4.10;;;;;;;15.63;100.00;96154.16;4990111;28;24622;-72
2022/08/31 06:43:37;;;;;;;4.70;3.72;;;;;;;15.66;100.00;96147.91;4987292;28;24432;-72
2022/08/31 06:46:04;;;;;;;7.70;3.78;;;;;;;15.70;100.00;96150.16;4990056;28;24814;-72
2022/08/31 06:48:30;;;;;;;5.32;3.83;;;;;;;15.62;100.00;96156.88;4989276;28;24433;-73
2022/08/31 06:50:59;;;;;;;6.07;3.90;;;;;;;15.62;100.00;96154.28;4988443;28;24433;-72
2022/08/31 06:53:25;;;;;;;4.38;3.67;;;;;;;15.63;100.00;96148.09;4990454;28;25012;-74
2022/08/31 06:55:52;;;;;;;5.80;4.13;;;;;;;15.57;100.00;96145.94;4987974;28;24436;-73
2022/08/31 06:58:18;;;;;;;5.20;3.75;;;;;;;15.70;100.00;96150.16;4988820;28;24823;-72
2022/08/31 07:00:46;;;;;;;5.20;4.17;;;;;;;15.55;100.00;96145.25;4989370;28;24467;-73
2022/08/31 07:03:22;;;;;;;5.38;3.75;;;;;;;15.48;100.00;96150.09;4989326;28;24918;-72
2022/08/31 07:05:50;;;;;;;5.85;3.92;;;;;;;15.40;100.00;96149.84;4987152;28;24485;-72
2022/08/31 07:08:18;;;;;;;4.30;3.90;;;;;;;15.61;100.00;96144.75;4988555;28;24489;-74
2022/08/31 07:10:45;;;;;;;4.90;3.88;;;;;;;15.79;100.00;96143.38;4990150;28;24440;-74
2022/08/31 07:13:12;;;;;;;4.27;3.57;;;;;;;15.89;100.00;96140.88;4990418;28;24440;-74
2022/08/31 07:15:39;;;;;;;4.00;3.70;;;;;;;15.98;100.00;96150.59;4986044;28;24997;-74
2022/08/31 07:18:05;;;;;;;3.78;3.28;;;;;;;16.07;100.00;96142.06;4990055;28;24444;-73
2022/08/31 07:20:32;;;;;;;4.70;3.72;;;;;;;16.04;100.00;96144.91;4990212;28;24819;-75
2022/08/31 07:22:58;;;;;;;5.55;3.85;;;;;;;15.94;100.00;96151.78;4989279;28;24436;-73
2022/08/31 07:25:26;;;;;;;8.85;4.00;;;;;;;16.02;100.00;96153.81;4988985;28;24819;-73
2022/08/31 07:27:54;;;;;;;4.55;3.75;;;;;;;15.89;100.00;96153.94;4988924;28;24444;-75
2022/08/31 07:30:21;;;;;;;6.53;4.05;;;;;;;15.82;100.00;96161.41;4990135;28;24449;-75
2022/08/31 07:32:49;;;;;;;6.20;4.38;;;;;;;15.87;100.00;96163.66;4982368;28;24434;-77
2022/08/31 07:35:16;;;;;;;4.32;3.80;;;;;;;15.84;100.00;96164.75;4988510;28;24441;-75
2022/08/31 07:43:12;;;;;;;4.80;4.05;;;;;;;16.38;100.00;96177.03;4989990;28;24903;-75
2022/08/31 07:45:40;;;;;;;5.45;3.72;;;;;;;16.45;100.00;96183.44;4980567;28;24433;-76
2022/08/31 07:48:07;;;;;;;5.60;4.43;;;;;;;16.50;100.00;96183.09;4986827;28;24964;-76
2022/08/31 07:50:36;;;;;;;4.82;4.38;;;;;;;16.52;100.00;96182.97;4980270;28;24529;-75
2022/08/31 07:53:07;;;;;;;4.72;4.10;;;;;;;16.50;100.00;96182.25;4987317;28;24958;-76
2022/08/31 07:55:35;;;;;;;4.87;4.30;;;;;;;16.54;100.00;96181.03;4984622;28;24978;-76
2022/08/31 07:58:02;;;;;;;5.43;4.93;;;;;;;16.58;100.00;96182.47;4989929;28;24436;-75
2022/08/31 08:00:31;;;;;;;4.97;4.50;;;;;;;16.61;100.00;96175.22;4982194;28;24839;-74
2022/08/31 08:03:03;;;;;;;5.85;4.80;;;;;;;16.40;100.00;96179.53;4989833;28;24445;-74
2022/08/31 08:05:37;;;;;;;7.25;5.22;;;;;;;16.44;100.00;96176.56;4983990;28;24440;-74
2022/08/31 08:08:07;;;;;;;6.35;5.60;;;;;;;16.34;100.00;96178.22;4978769;28;24487;-73
2022/08/31 08:10:40;;;;;;;5.82;5.32;;;;;;;16.21;100.00;96175.78;4984906;28;24449;-73
2022/08/31 08:13:06;;;;;;;6.75;5.55;;;;;;;16.14;100.00;96177.22;4987050;28;24445;-73
2022/08/31 08:15:34;;;;;;;6.13;5.53;;;;;;;16.11;100.00;96180.06;4986570;28;24437;-73
2022/08/31 08:18:02;;;;;;;7.97;5.97;;;;;;;16.24;100.00;96184.31;4991391;28;24887;-72
2022/08/31 08:20:29;;;;;;;6.55;5.32;;;;;;;16.24;100.00;96194.75;4979455;28;24453;-73
2022/08/31 08:22:55;;;;;;;6.28;5.68;;;;;;;16.39;100.00;96191.78;4993901;28;24869;-73
2022/08/31 08:25:22;;;;;;;9.05;5.43;;;;;;;16.40;100.00;96195.22;4992367;28;24428;-73
2022/08/31 08:27:52;;;;;;;7.43;5.07;;;;;;;16.40;100.00;96192.63;4985789;28;24782;-73
2022/08/31 08:30:19;;;;;;;7.23;5.13;;;;;;;16.42;100.00;96193.31;4982577;28;24446;-74
2022/08/31 08:32:46;;;;;;;7.93;5.00;;;;;;;16.26;100.00;96196.31;4993304;28;24605;-73
2022/08/31 08:35:13;;;;;;;6.35;4.70;;;;;;;16.33;100.00;96194.06;4985378;28;24864;-74
2022/08/31 08:37:40;;;;;;;6.28;4.82;;;;;;;16.40;100.00;96196.06;4985768;28;24450;-72
2022/08/31 08:40:13;;;;;;;6.00;4.85;;;;;;;16.53;100.00;96200.31;4985629;28;24478;-73
2022/08/31 08:42:40;;;;;;;5.38;4.72;;;;;;;16.64;100.00;96197.66;4992762;28;24463;-74
2022/08/31 08:45:10;;;;;;;6.40;5.00;;;;;;;16.73;100.00;96198.72;4980030;28;24987;-73
2022/08/31 08:47:37;;;;;;;7.17;4.93;;;;;;;16.79;100.00;96196.44;4986095;28;24453;-73
2022/08/31 08:50:06;;;;;;;6.18;4.53;;;;;;;16.92;100.00;96199.75;4988258;28;24445;-73
2022/08/31 08:52:42;;;;;;;5.70;5.10;;;;;;;17.01;100.00;96207.81;4992702;28;24993;-73
2022/08/31 08:55:11;;;;;;;7.90;5.65;;;;;;;16.88;100.00;96202.75;4985995;28;24437;-72
2022/08/31 08:57:41;;;;;;;7.87;5.37;;;;;;;16.94;100.00;96212.69;4985856;28;24441;-73
2022/08/31 09:00:13;;;;;;;5.97;4.57;;;;;;;17.03;100.00;96213.75;4986029;28;24500;-74
2022/08/31 09:02:43;;;;;;;6.10;4.93;;;;;;;17.13;100.00;96215.50;4993030;28;24567;-74
2022/08/31 09:05:33;;;;;;;6.13;4.97;;;;;;;17.24;100.00;96216.38;4980238;28;24448;-74
2022/08/31 09:08:22;;;;;;;6.57;5.05;;;;;;;17.27;100.00;96211.72;4990428;28;24528;-73
2022/08/31 09:11:05;;;;;;;7.68;5.00;;;;;;;17.24;100.00;96216.38;4987247;28;24433;-74
2022/08/31 09:13:44;;;;;;;8.25;5.82;;;;;;;17.03;100.00;96216.38;4988092;28;24979;-73
2022/08/31 09:16:24;;;;;;;6.47;5.47;;;;;;;16.88;100.00;96210.59;4991270;28;24437;-73
2022/08/31 09:18:56;;;;;;;6.80;5.72;;;;;;;16.98;100.00;96208.88;4985366;28;24464;-73
2022/08/31 09:21:27;;;;;;;8.48;6.15;;;;;;;16.90;100.00;96213.91;4989165;28;24437;-73
2022/08/31 09:24:01;;;;;;;8.23;5.72;;;;;;;16.96;100.00;96204.75;4992440;28;24437;-74
2022/08/31 09:26:34;;;;;;;7.32;6.32;;;;;;;17.03;100.00;96213.75;4990006;28;24479;-73
2022/08/31 09:29:02;;;;;;;9.17;6.03;;;;;;;17.07;100.00;96217.78;4997422;28;24479;-73
2022/08/31 09:31:36;;;;;;;7.50;6.38;;;;;;;17.08;100.00;96219.44;4990769;28;24443;-73
2022/08/31 09:34:07;;;;;;;8.55;6.10;;;;;;;17.15;100.00;96224.03;4990288;28;24452;-73
2022/08/31 09:36:39;;;;;;;8.25;6.05;;;;;;;17.23;100.00;96225.19;4991474;28;24432;-73
2022/08/31 09:39:21;;;;;;;6.88;5.05;;;;;;;17.24;100.00;96222.44;4987933;28;25037;-73
2022/08/31 09:41:49;;;;;;;5.60;5.10;;;;;;;17.07;100.00;96225.63;4982093;28;24462;-73
2022/08/31 09:44:30;;;;;;;8.00;6.40;;;;;;;17.05;100.00;96212.66;4988330;28;24467;-73
2022/08/31 09:47:01;;;;;;;6.85;5.85;;;;;;;16.95;100.00;96219.59;4991606;28;24514;-73
2022/08/31 09:49:29;;;;;;;7.47;5.70;;;;;;;16.98;100.00;96219.34;4986785;28;24440;-73
2022/08/31 09:52:20;;;;;;;7.65;5.80;;;;;;;17.01;100.00;96219.09;4989384;28;24445;-73
2022/08/31 09:55:16;;;;;;;7.18;5.57;;;;;;;17.12;100.00;96218.22;4983446;28;24444;-74
2022/08/31 09:57:52;;;;;;;7.50;5.68;;;;;;;17.17;100.00;96216.91;4982122;28;24869;-74
2022/08/31 10:00:30;;;;;;;8.38;5.65;;;;;;;17.22;100.00;96224.38;4989957;28;24986;-74
2022/08/31 10:03:08;;;;;;;8.45;6.60;;;;;;;17.13;100.00;96220.72;4989295;28;24560;-74
2022/08/31 10:05:39;;;;;;;8.68;5.78;;;;;;;17.22;100.00;96215.69;4987320;28;24795;-74
2022/08/31 10:08:13;;;;;;;6.90;6.20;;;;;;;17.24;100.00;96216.38;4984849;28;24998;-74
2022/08/31 10:10:42;;;;;;;8.50;6.32;;;;;;;17.23;100.00;96218.16;4987521;28;24437;-75
2022/08/31 10:13:16;;;;;;;6.95;5.85;;;;;;;17.36;100.00;96220.63;4989465;28;24448;-74
2022/08/31 10:15:51;;;;;;;7.85;7.07;;;;;;;17.16;100.00;96223.06;4982619;28;24480;-74
2022/08/31 10:18:27;;;;;;;8.70;6.38;;;;;;;17.13;100.00;96218.13;4985867;28;24532;-74
2022/08/31 10:21:04;;;;;;;8.27;7.37;;;;;;;17.17;100.00;96227.38;4982750;28;24448;-70
2022/08/31 10:23:36;;;;;;;9.25;6.80;;;;;;;17.24;100.00;96226.84;4987889;28;24528;-75
2022/08/31 10:26:10;;;;;;;8.43;7.07;;;;;;;17.21;100.00;96230.56;4988325;28;24455;-74
2022/08/31 10:28:42;;;;;;;8.18;7.35;;;;;;;17.14;100.00;96234.63;4989050;28;24437;-74
2022/08/31 10:31:19;;;;;;;9.90;7.13;;;;;;;17.21;100.00;96237.59;4987997;28;24481;-75
2022/08/31 10:36:39;;;;;;;9.10;7.60;;;;;;;16.99;100.00;96236.72;4983573;28;24496;-74
2022/08/31 10:39:16;;;;;;;12.20;8.70;;;;;;;16.90;100.00;96237.44;4989175;28;24474;-74
2022/08/31 10:41:49;;;;;;;9.60;7.93;;;;;;;17.01;100.00;96240.03;4987254;28;25009;-74
2022/08/31 10:44:22;;;;;;;8.82;7.88;;;;;;;16.99;100.00;96241.13;4984604;28;24432;-74
2022/08/31 10:46:53;;;;;;;8.15;6.97;;;;;;;17.10;100.00;96248.94;4987621;28;24532;-75
2022/08/31 10:49:21;;;;;;;9.70;7.85;;;;;;;17.11;100.00;96235.72;4985640;28;24504;-74
2022/08/31 10:51:55;;;;;;;11.57;7.70;;;;;;;17.05;100.00;96245.84;4987289;28;24437;-74
2022/08/31 10:54:34;;;;;;;10.63;8.55;;;;;;;16.94;100.00;96246.69;4984179;28;24437;-73
2022/08/31 10:57:15;;;;;;;9.27;7.28;;;;;;;16.98;100.00;96244.66;4986280;28;24443;-73
2022/08/31 10:59:51;;;;;;;10.68;8.60;;;;;;;16.84;100.00;96243.19;4988706;28;24444;-73
2022/08/31 11:02:35;;;;;;;12.43;8.65;;;;;;;17.01;100.00;96255.72;4978315;28;24461;-73
2022/08/31 11:05:21;;;;;;;9.23;8.18;;;;;;;17.09;100.00;96249.88;4984819;28;24448;-73
2022/08/31 11:07:56;;;;;;;11.30;8.23;;;;;;;17.13;100.00;96248.66;4987902;28;24891;-73
2022/08/31 11:10:31;;;;;;;9.50;8.50;;;;;;;17.08;100.00;96248.22;4981483;28;24959;-74
2022/08/31 11:13:02;;;;;;;13.77;9.15;;;;;;;16.92;100.00;96246.00;4989081;28;24425;-74
2022/08/31 11:16:00;;;;;;;10.73;9.23;;;;;;;16.89;100.00;96248.88;4985534;28;25014;-74
2022/08/31 11:18:53;;;;;;;12.10;9.27;;;;;;;16.77;100.00;96237.63;4985059;28;24433;-73
2022/08/31 11:21:37;;;;;;;10.65;8.13;;;;;;;16.95;100.00;96237.94;4984960;28;24448;-73
2022/08/31 11:24:22;;;;;;;9.52;8.07;;;;;;;16.83;100.00;96231.03;4987867;28;24452;-74
2022/08/31 11:27:00;;;;;;;8.77;7.97;;;;;;;16.83;100.00;96231.03;4985836;28;24520;-74
2022/08/31 11:29:40;;;;;;;11.85;8.82;;;;;;;16.78;100.00;96223.56;4986694;28;24804;-74
2022/08/31 11:32:16;;;;;;;8.90;7.95;;;;;;;16.69;100.00;96222.50;4988942;28;24437;-74
2022/08/31 11:34:49;;;;;;;10.60;8.25;;;;;;;16.68;100.00;96222.59;4979702;28;24451;-74
2022/08/31 11:37:51;;;;;;;10.88;7.90;;;;;;;16.72;100.00;96221.41;4975757;28;24523;-73
2022/08/31 11:40:50;;;;;;;9.38;7.10;;;;;;;16.67;100.00;96228.81;4986867;28;24441;-74
2022/08/31 11:43:45;;;;;;;9.80;7.50;;;;;;;16.89;100.00;96223.53;4983307;28;24460;-73
2022/08/31 11:46:41;;;;;;;9.13;7.40;;;;;;;16.97;100.00;96215.06;4977693;28;24438;-73
2022/08/31 11:49:09;;;;;;;8.50;7.60;;;;;;;17.09;100.00;96213.22;4978113;28;25073;-72